Time;durP1;ratioP1;P1;durP2;ratioP2;P2;SDS_P1;SDS_P2;PMS_P1;PMS_P2;Temp;Humidity;BMP_temperature;BMP_pressure;BME280_temperature;BME280_humidity;BME280_pressure;Samples;Min_cycle;Max_cycle;Signal;HPM_P1;HPM_P2
2021/08/15 00:01:14;;;;;;;36.27;21.07;;;15.70;1.00;;;;;;5033168;28;20230;-62
2021/08/15 00:03:41;;;;;;;31.87;20.63;;;15.70;73.70;;;;;;5032913;28;20259;-62
2021/08/15 00:06:08;;;;;;;33.27;20.40;;;15.70;99.90;;;;;;5033217;28;20745;-63
2021/08/15 00:08:36;;;;;;;33.97;20.43;;;15.70;1.00;;;;;;5031968;28;20225;-62
2021/08/15 00:11:02;;;;;;;29.17;19.60;;;15.70;1.00;;;;;;5033137;28;20230;-62
2021/08/15 00:13:29;;;;;;;37.63;19.27;;;15.70;1.00;;;;;;5032611;28;20206;-62
2021/08/15 00:15:56;;;;;;;34.40;19.67;;;15.70;1.00;;;;;;5033023;28;20214;-61
2021/08/15 00:18:22;;;;;;;28.90;19.13;;;15.60;99.90;;;;;;5033425;28;20232;-63
2021/08/15 00:20:49;;;;;;;30.07;19.03;;;15.60;99.90;;;;;;5032697;28;20230;-63
2021/08/15 00:23:16;;;;;;;31.17;18.07;;;15.70;99.90;;;;;;5032682;28;20695;-63
2021/08/15 00:25:43;;;;;;;29.13;18.77;;;15.60;99.90;;;;;;5032166;28;20206;-63
2021/08/15 00:28:10;;;;;;;29.13;17.97;;;15.60;99.90;;;;;;5032657;28;20260;-63
2021/08/15 00:30:37;;;;;;;28.20;17.97;;;15.70;1.00;;;;;;5032422;28;20230;-62
2021/08/15 00:33:04;;;;;;;28.37;17.77;;;15.70;99.90;;;;;;5032695;28;20206;-61
2021/08/15 00:35:31;;;;;;;33.03;17.90;;;15.70;99.90;;;;;;5031972;28;20617;-63
2021/08/15 00:37:58;;;;;;;26.57;17.03;;;15.80;1.00;;;;;;5032332;28;20222;-63
2021/08/15 00:40:24;;;;;;;32.10;17.63;;;15.80;99.90;;;;;;5032274;28;20233;-61
2021/08/15 00:42:52;;;;;;;27.47;17.40;;;15.80;1.00;;;;;;5032141;28;20210;-63
2021/08/15 00:45:19;;;;;;;32.00;18.20;;;15.90;99.90;;;;;;5032174;28;20252;-63
2021/08/15 00:47:46;;;;;;;28.13;17.70;;;15.90;99.90;;;;;;5032224;28;20202;-63
2021/08/15 00:50:12;;;;;;;28.03;17.47;;;15.90;99.90;;;;;;5032182;28;20260;-62
2021/08/15 00:52:39;;;;;;;31.70;17.87;;;15.90;99.90;;;;;;5032112;28;20214;-62
2021/08/15 00:55:09;;;;;;;29.10;17.13;;;15.90;99.90;;;;;;5030722;28;20262;-62
2021/08/15 00:57:37;;;;;;;29.07;16.83;;;15.90;99.90;;;;;;5032112;28;20229;-62
2021/08/15 01:00:06;;;;;;;24.87;16.57;;;15.90;99.90;;;;;;5031995;28;20213;-62
2021/08/15 01:02:33;;;;;;;28.33;17.97;;;15.80;99.90;;;;;;5032218;28;20207;-63
2021/08/15 01:05:01;;;;;;;30.10;18.13;;;15.80;99.90;;;;;;5031545;28;20210;-62
2021/08/15 01:07:28;;;;;;;28.10;17.63;;;15.90;99.90;;;;;;5031724;28;20248;-63
2021/08/15 01:09:55;;;;;;;29.33;18.40;;;15.90;99.90;;;;;;5031784;28;20214;-63
2021/08/15 01:12:22;;;;;;;30.13;17.80;;;15.90;99.90;;;;;;5032131;28;20210;-63
2021/08/15 01:14:49;;;;;;;29.30;17.63;;;15.90;99.90;;;;;;5031773;28;20206;-63
2021/08/15 01:17:17;;;;;;;26.10;17.33;;;15.80;99.90;;;;;;5031715;28;20225;-63
2021/08/15 01:19:44;;;;;;;29.20;18.07;;;15.90;81.50;;;;;;5031867;28;20207;-62
2021/08/15 01:22:10;;;;;;;28.07;16.93;;;15.90;91.10;;;;;;5031573;28;20225;-62
2021/08/15 01:24:37;;;;;;;28.60;17.93;;;15.90;3.60;;;;;;5032505;28;20295;-63
2021/08/15 01:27:05;;;;;;;27.00;16.97;;;15.90;1.00;;;;;;5031340;28;20725;-62
2021/08/15 01:29:33;;;;;;;29.43;17.63;;;16.00;1.00;;;;;;5033138;28;20561;-61
2021/08/15 01:32:00;;;;;;;30.97;17.30;;;16.00;99.90;;;;;;5031913;28;20596;-62
2021/08/15 01:34:26;;;;;;;31.20;18.33;;;16.00;99.90;;;;;;5031583;28;20261;-62
2021/08/15 01:36:53;;;;;;;25.13;17.73;;;16.00;99.90;;;;;;5031284;28;20289;-63
2021/08/15 01:39:19;;;;;;;27.10;17.40;;;16.00;99.90;;;;;;5031633;28;20206;-62
2021/08/15 01:41:46;;;;;;;27.80;17.63;;;16.00;99.90;;;;;;5031572;28;20226;-63
2021/08/15 01:44:13;;;;;;;29.40;18.20;;;16.00;99.90;;;;;;5031300;28;20206;-62
2021/08/15 01:46:41;;;;;;;33.97;18.90;;;16.10;99.90;;;;;;5031504;28;20737;-63
2021/08/15 01:49:07;;;;;;;30.73;17.53;;;16.10;99.90;;;;;;5031230;28;20262;-62
2021/08/15 01:51:34;;;;;;;29.30;18.10;;;16.00;1.00;;;;;;5031653;28;20356;-62
2021/08/15 01:54:02;;;;;;;30.17;18.77;;;16.10;9.00;;;;;;5031318;28;20206;-62
2021/08/15 01:56:29;;;;;;;36.83;19.40;;;16.10;1.00;;;;;;5031263;28;20202;-62
2021/08/15 01:58:56;;;;;;;33.13;20.63;;;16.10;1.00;;;;;;5031508;28;20201;-62
2021/08/15 02:01:24;;;;;;;29.37;19.03;;;16.00;25.70;;;;;;5031364;28;20590;-62
2021/08/15 02:03:52;;;;;;;29.73;18.90;;;16.00;82.20;;;;;;5031098;28;20602;-61
2021/08/15 02:06:19;;;;;;;31.87;19.03;;;15.90;99.90;;;;;;5031682;28;20213;-62
2021/08/15 02:08:48;;;;;;;30.77;18.67;;;15.90;99.90;;;;;;5035498;28;20264;-62
2021/08/15 02:11:15;;;;;;;35.93;20.67;;;15.90;99.90;;;;;;5035069;28;20265;-62
2021/08/15 02:13:42;;;;;;;29.17;18.63;;;15.90;99.90;;;;;;5035117;28;20202;-63
2021/08/15 02:16:08;;;;;;;32.70;19.27;;;16.00;1.00;;;;;;5035454;28;20206;-63
2021/08/15 02:18:35;;;;;;;30.50;19.80;;;16.00;1.00;;;;;;5035065;28;20230;-61
2021/08/15 02:21:03;;;;;;;33.03;19.50;;;16.00;1.00;;;;;;5035522;28;20226;-62
2021/08/15 02:23:30;;;;;;;32.23;20.17;;;16.00;99.90;;;;;;5035071;28;20274;-63
2021/08/15 02:25:56;;;;;;;30.90;19.50;;;16.00;99.90;;;;;;5035459;28;20210;-63
2021/08/15 02:28:23;;;;;;;33.30;19.30;;;16.10;99.90;;;;;;5035344;28;20206;-62
2021/08/15 02:30:50;;;;;;;29.97;19.60;;;16.10;99.90;;;;;;5034945;28;20280;-63
2021/08/15 02:33:16;;;;;;;33.17;19.47;;;16.10;99.90;;;;;;5035251;28;20233;-62
2021/08/15 02:35:44;;;;;;;31.13;19.07;;;16.00;99.90;;;;;;5035330;28;20215;-63
2021/08/15 02:38:13;;;;;;;34.47;20.00;;;16.00;99.90;;;;;;5034974;28;20284;-63
2021/08/15 02:40:40;;;;;;;34.20;20.33;;;16.00;99.90;;;;;;5035007;28;20222;-62
2021/08/15 02:43:07;;;;;;;30.90;20.00;;;16.00;99.90;;;;;;5034927;28;20256;-62
2021/08/15 02:45:34;;;;;;;30.37;19.87;;;16.00;1.00;;;;;;5034615;28;20256;-62
2021/08/15 02:48:00;;;;;;;31.87;19.53;;;16.00;1.00;;;;;;5035088;28;20237;-62
2021/08/15 02:50:27;;;;;;;33.03;19.97;;;15.90;1.00;;;;;;5034828;28;20230;-62
2021/08/15 02:52:53;;;;;;;30.63;20.13;;;15.90;1.00;;;;;;5034901;28;20248;-62
2021/08/15 02:55:21;;;;;;;33.73;20.43;;;15.90;1.00;;;;;;5034535;28;20210;-62
2021/08/15 02:57:48;;;;;;;35.43;21.17;;;15.90;1.00;;;;;;5034594;28;20721;-61
2021/08/15 03:00:15;;;;;;;32.67;19.97;;;15.90;1.00;;;;;;5034444;28;20214;-62
2021/08/15 03:02:42;;;;;;;36.47;21.90;;;15.90;1.00;;;;;;5034825;28;20210;-61
2021/08/15 03:05:10;;;;;;;33.57;21.13;;;16.00;1.00;;;;;;5034482;28;20253;-62
2021/08/15 03:07:37;;;;;;;33.53;20.23;;;15.90;99.90;;;;;;5034731;28;20206;-62
2021/08/15 03:10:05;;;;;;;34.57;21.00;;;16.00;99.90;;;;;;5034371;28;20256;-62
2021/08/15 03:12:33;;;;;;;30.97;20.37;;;16.00;99.90;;;;;;5034285;28;20210;-63
2021/08/15 03:15:00;;;;;;;36.73;21.97;;;16.00;99.90;;;;;;5034472;28;20210;-62
2021/08/15 03:17:26;;;;;;;32.63;21.07;;;16.00;99.90;;;;;;5033862;28;20223;-62
2021/08/15 03:19:53;;;;;;;30.50;20.40;;;16.00;99.90;;;;;;5033693;28;20210;-62
2021/08/15 03:22:19;;;;;;;38.17;21.80;;;16.00;99.90;;;;;;5034193;28;20280;-63
2021/08/15 03:24:46;;;;;;;32.63;20.03;;;16.00;99.90;;;;;;5034111;28;20218;-63
2021/08/15 03:27:13;;;;;;;29.33;20.90;;;16.00;99.90;;;;;;5034060;28;20207;-62
2021/08/15 03:29:41;;;;;;;28.93;20.30;;;16.00;99.90;;;;;;5034472;28;20280;-63
2021/08/15 03:32:07;;;;;;;32.70;21.40;;;16.00;99.90;;;;;;5034069;28;20252;-63
2021/08/15 03:34:34;;;;;;;37.27;21.93;;;15.90;99.90;;;;;;5034018;28;20206;-63
2021/08/15 03:37:01;;;;;;;31.13;20.47;;;15.90;99.90;;;;;;5033937;28;20211;-62
2021/08/15 03:39:29;;;;;;;34.97;22.40;;;15.90;99.90;;;;;;5033980;28;20276;-62
2021/08/15 03:41:58;;;;;;;35.33;22.33;;;15.90;1.00;;;;;;5033607;28;20265;-62
2021/08/15 03:44:26;;;;;;;36.13;22.60;;;15.90;1.00;;;;;;5033994;28;20210;-61
2021/08/15 03:46:54;;;;;;;31.90;22.77;;;15.90;1.00;;;;;;5034133;28;20206;-62
2021/08/15 03:49:21;;;;;;;37.23;22.73;;;16.00;1.00;;;;;;5033806;28;20667;-62
2021/08/15 03:51:48;;;;;;;36.33;23.57;;;15.90;1.00;;;;;;5033652;28;20272;-61
2021/08/15 03:54:17;;;;;;;37.43;23.80;;;16.00;1.00;;;;;;5033267;28;20260;-62
2021/08/15 03:56:43;;;;;;;37.37;24.60;;;16.00;1.00;;;;;;5033773;28;20207;-61
2021/08/15 03:59:10;;;;;;;38.60;23.30;;;16.00;1.00;;;;;;5033605;28;20230;-62
2021/08/15 04:01:37;;;;;;;35.20;24.17;;;16.00;1.00;;;;;;5033594;28;20222;-61
2021/08/15 04:04:05;;;;;;;39.00;22.90;;;16.00;42.00;;;;;;5033203;28;20777;-61
2021/08/15 04:06:33;;;;;;;37.10;24.70;;;16.00;1.00;;;;;;5033471;28;20241;-62
2021/08/15 04:09:01;;;;;;;33.77;23.10;;;16.00;1.00;;;;;;5033560;28;20203;-63
2021/08/15 04:11:28;;;;;;;41.70;22.97;;;16.00;33.40;;;;;;5033424;28;20253;-62
2021/08/15 04:13:55;;;;;;;36.37;24.50;;;16.00;99.90;;;;;;5033293;28;20260;-62
2021/08/15 04:16:21;;;;;;;34.73;24.13;;;15.90;99.90;;;;;;5033456;28;20210;-62
2021/08/15 04:18:48;;;;;;;37.80;23.67;;;15.90;99.90;;;;;;5033126;28;20226;-62
2021/08/15 04:21:16;;;;;;;34.10;23.33;;;15.90;99.90;;;;;;5032986;28;20284;-63
2021/08/15 04:23:42;;;;;;;38.10;24.17;;;15.90;1.00;;;;;;5033264;28;20215;-62
2021/08/15 04:26:09;;;;;;;38.03;22.90;;;15.90;1.00;;;;;;5033000;28;20211;-62
2021/08/15 04:28:36;;;;;;;36.83;24.13;;;15.90;1.00;;;;;;5033274;28;20202;-63
2021/08/15 04:31:02;;;;;;;34.93;23.07;;;15.90;1.00;;;;;;5032799;28;20242;-62
2021/08/15 04:33:29;;;;;;;38.07;24.13;;;15.90;1.00;;;;;;5032838;28;20624;-63
2021/08/15 04:35:56;;;;;;;44.60;24.90;;;15.90;1.00;;;;;;5032561;28;20572;-63
2021/08/15 04:38:25;;;;;;;37.43;24.87;;;15.90;1.00;;;;;;5032796;28;20256;-62
2021/08/15 04:40:51;;;;;;;40.70;24.77;;;15.90;1.00;;;;;;5032783;28;20230;-62
2021/08/15 04:43:18;;;;;;;36.47;24.43;;;16.00;1.00;;;;;;5032818;28;20256;-62
2021/08/15 04:45:46;;;;;;;34.40;22.63;;;16.00;1.00;;;;;;5032588;28;20209;-62
2021/08/15 04:48:13;;;;;;;36.83;24.07;;;16.00;1.00;;;;;;5032656;28;20205;-62
2021/08/15 04:50:40;;;;;;;45.50;25.13;;;16.00;1.00;;;;;;5032272;28;20695;-62
2021/08/15 04:53:07;;;;;;;39.63;24.07;;;16.10;56.20;;;;;;5032739;28;20218;-61
2021/08/15 04:55:35;;;;;;;43.03;24.57;;;16.10;99.90;;;;;;5032525;28;20207;-62
2021/08/15 04:58:02;;;;;;;40.30;24.97;;;16.10;99.90;;;;;;5032350;28;20280;-63
2021/08/15 05:00:28;;;;;;;40.07;24.23;;;16.10;99.90;;;;;;5032601;28;20222;-63
2021/08/15 05:02:55;;;;;;;37.93;24.27;;;16.20;50.20;;;;;;5032475;28;20579;-61
2021/08/15 05:05:22;;;;;;;37.73;23.43;;;16.20;1.00;;;;;;5032126;28;20214;-63
2021/08/15 05:07:49;;;;;;;34.20;23.23;;;16.20;1.00;;;;;;5032214;28;20210;-62
2021/08/15 05:10:16;;;;;;;38.70;23.93;;;16.30;1.00;;;;;;5032342;28;20292;-62
2021/08/15 05:12:44;;;;;;;37.30;24.27;;;16.30;25.10;;;;;;5032185;28;20206;-63
2021/08/15 05:15:11;;;;;;;38.93;23.50;;;16.30;42.50;;;;;;5032148;28;20206;-62
2021/08/15 05:17:38;;;;;;;36.97;23.20;;;16.40;1.00;;;;;;5032009;28;20217;-62
2021/08/15 05:20:05;;;;;;;35.80;23.00;;;16.40;1.00;;;;;;5032206;28;20667;-62
2021/08/15 05:22:32;;;;;;;39.27;22.17;;;16.50;99.90;;;;;;5032231;28;20257;-63
2021/08/15 05:24:59;;;;;;;35.73;23.27;;;16.50;1.00;;;;;;5032127;28;20268;-63
2021/08/15 05:27:25;;;;;;;37.67;22.03;;;16.60;99.90;;;;;;5032299;28;20640;-61
2021/08/15 05:29:53;;;;;;;33.60;21.13;;;16.70;99.90;;;;;;5032106;28;20222;-61
2021/08/15 05:32:20;;;;;;;33.03;21.67;;;16.80;99.90;;;;;;5031917;28;20257;-62
2021/08/15 05:34:46;;;;;;;30.33;21.43;;;16.90;49.90;;;;;;5031825;28;20207;-62
2021/08/15 05:37:13;;;;;;;32.23;20.70;;;17.00;1.00;;;;;;5032133;28;20256;-62
2021/08/15 05:39:40;;;;;;;32.40;20.37;;;17.10;99.90;;;;;;5032139;28;20660;-62
2021/08/15 05:42:06;;;;;;;28.63;19.10;;;17.20;99.90;;;;;;5031280;28;20222;-62
2021/08/15 05:44:33;;;;;;;27.93;19.50;;;17.20;99.90;;;;;;5031663;28;20256;-62
2021/08/15 05:47:03;;;;;;;36.67;19.93;;;17.30;91.90;;;;;;5032098;28;20202;-62
2021/08/15 05:49:30;;;;;;;31.63;18.40;;;17.50;1.00;;;;;;5032138;28;20234;-62
2021/08/15 05:51:56;;;;;;;33.93;19.63;;;17.60;99.90;;;;;;5031950;28;20580;-62
2021/08/15 05:54:23;;;;;;;30.30;17.70;;;17.70;99.90;;;;;;5031974;28;20202;-62
2021/08/15 05:56:50;;;;;;;28.03;18.13;;;17.80;99.90;;;;;;5031790;28;20206;-62
2021/08/15 05:59:16;;;;;;;26.67;17.00;;;17.90;99.90;;;;;;5031347;28;20222;-61
2021/08/15 06:01:43;;;;;;;28.47;17.57;;;18.00;99.90;;;;;;5031885;28;20226;-62
2021/08/15 06:04:11;;;;;;;26.87;15.73;;;18.00;22.90;;;;;;5031660;28;20287;-61
2021/08/15 06:06:37;;;;;;;26.50;15.93;;;18.10;99.90;;;;;;5031912;28;20211;-62
2021/08/15 06:09:04;;;;;;;30.43;16.57;;;18.10;63.10;;;;;;5031713;28;20206;-62
2021/08/15 06:11:30;;;;;;;23.80;15.43;;;18.20;1.00;;;;;;5031411;28;20638;-61
2021/08/15 06:13:58;;;;;;;26.20;16.83;;;18.20;1.00;;;;;;5031610;28;20207;-62
2021/08/15 06:16:24;;;;;;;25.73;15.90;;;18.20;1.00;;;;;;5040027;28;20209;-65
2021/08/15 06:18:53;;;;;;;24.77;15.23;;;18.30;1.00;;;;;;5046611;28;20279;-65
2021/08/15 06:21:20;;;;;;;23.90;14.73;;;18.40;1.00;;;;;;5048440;28;20271;-65
2021/08/15 06:23:48;;;;;;;27.50;15.67;;;18.40;1.00;;;;;;5051926;28;20206;-65
2021/08/15 06:26:15;;;;;;;22.80;14.50;;;18.40;99.90;;;;;;5051588;28;20245;-65
2021/08/15 06:28:41;;;;;;;22.77;13.67;;;18.50;99.90;;;;;;5044233;28;20272;-65
2021/08/15 06:31:08;;;;;;;19.43;12.83;;;18.60;99.90;;;;;;5050550;28;20287;-65
2021/08/15 06:33:35;;;;;;;25.10;12.97;;;18.70;99.90;;;;;;5050972;28;20264;-65
2021/08/15 06:36:01;;;;;;;21.50;12.17;;;18.80;99.90;;;;;;5050899;28;20209;-65
2021/08/15 06:38:29;;;;;;;18.13;11.20;;;19.00;1.00;;;;;;5051030;28;20237;-65
2021/08/15 06:40:57;;;;;;;20.90;11.57;;;19.10;1.00;;;;;;5050644;28;20276;-65
2021/08/15 06:43:23;;;;;;;19.20;10.77;;;19.20;99.90;;;;;;5050795;28;20629;-68
2021/08/15 06:45:50;;;;;;;20.40;10.40;;;19.30;99.90;;;;;;5050783;28;20721;-65
2021/08/15 06:48:17;;;;;;;17.60;10.17;;;19.40;99.90;;;;;;5050895;28;20217;-65
2021/08/15 06:50:43;;;;;;;17.63;10.03;;;19.50;99.90;;;;;;5050169;28;20296;-64
2021/08/15 06:53:10;;;;;;;16.70;9.37;;;19.60;99.90;;;;;;5051349;28;20205;-65
2021/08/15 06:55:38;;;;;;;19.13;10.37;;;19.70;99.90;;;;;;5054055;28;20563;-63
2021/08/15 06:58:04;;;;;;;16.77;9.63;;;19.90;99.90;;;;;;5054556;28;20209;-65
2021/08/15 07:00:31;;;;;;;13.47;8.63;;;19.90;99.90;;;;;;5053963;28;20287;-65
2021/08/15 07:02:59;;;;;;;15.60;9.00;;;20.10;99.90;;;;;;5054373;28;20209;-65
2021/08/15 07:05:26;;;;;;;14.03;8.47;;;20.20;99.90;;;;;;5053840;28;20209;-65
2021/08/15 07:07:53;;;;;;;14.27;7.50;;;20.40;1.00;;;;;;5054254;28;20251;-66
2021/08/15 07:10:19;;;;;;;17.67;8.17;;;20.50;1.00;;;;;;5054043;28;20276;-66
2021/08/15 07:12:52;;;;;;;13.43;8.17;;;20.60;1.00;;;;;;5054054;28;20233;-67
2021/08/15 07:15:19;;;;;;;13.40;7.60;;;20.70;1.00;;;;;;5053504;28;20213;-68
2021/08/15 07:17:45;;;;;;;13.33;7.37;;;20.80;1.00;;;;;;5053815;28;20205;-64
2021/08/15 07:20:13;;;;;;;15.53;7.63;;;20.90;1.00;;;;;;5053478;28;20291;-64
2021/08/15 07:22:40;;;;;;;12.70;6.83;;;20.90;1.00;;;;;;5053489;28;20210;-64
2021/08/15 07:25:08;;;;;;;12.57;7.13;;;21.10;1.00;;;;;;5053955;28;20206;-64
2021/08/15 07:27:35;;;;;;;13.63;6.80;;;21.00;1.00;;;;;;5053872;28;20309;-64
2021/08/15 07:30:04;;;;;;;13.67;7.47;;;21.10;1.00;;;;;;5053449;28;20285;-65
2021/08/15 07:32:31;;;;;;;9.63;6.70;;;21.20;1.00;;;;;;5053462;28;20201;-65
2021/08/15 07:34:57;;;;;;;11.03;5.80;;;21.30;1.00;;;;;;5052965;28;20256;-64
2021/08/15 07:37:24;;;;;;;10.77;7.07;;;21.30;1.00;;;;;;5053650;28;20205;-65
2021/08/15 07:39:51;;;;;;;11.93;6.50;;;21.40;1.00;;;;;;5053425;28;20222;-65
2021/08/15 07:42:19;;;;;;;10.73;6.27;;;21.40;1.00;;;;;;5053309;28;20721;-65
2021/08/15 07:44:45;;;;;;;8.13;5.70;;;21.50;1.00;;;;;;5053230;28;20218;-65
2021/08/15 07:47:14;;;;;;;10.33;5.60;;;21.60;1.00;;;;;;5053456;28;20210;-65
2021/08/15 07:49:40;;;;;;;9.37;5.33;;;21.60;1.00;;;;;;5052738;28;20813;-63
2021/08/15 07:52:07;;;;;;;9.60;5.10;;;21.80;1.00;;;;;;5053518;28;20287;-65
2021/08/15 07:54:34;;;;;;;14.93;4.77;;;21.90;1.00;;;;;;5053342;28;20205;-66
2021/08/15 07:57:00;;;;;;;10.13;4.90;;;22.00;1.00;;;;;;5053310;28;20209;-65
2021/08/15 07:59:27;;;;;;;9.50;4.80;;;22.10;1.00;;;;;;5052886;28;20217;-65
2021/08/15 08:01:54;;;;;;;12.13;4.77;;;22.10;1.00;;;;;;5053276;28;20271;-66
2021/08/15 08:04:22;;;;;;;10.80;4.80;;;22.10;1.00;;;;;;5052234;28;20271;-66
2021/08/15 08:06:50;;;;;;;9.23;4.93;;;22.00;1.00;;;;;;5053120;28;20210;-66
2021/08/15 08:09:16;;;;;;;9.67;4.37;;;22.00;1.00;;;;;;5052898;28;20282;-63
2021/08/15 08:11:43;;;;;;;11.10;4.00;;;22.00;1.00;;;;;;5052761;28;20221;-65
2021/08/15 08:14:10;;;;;;;10.07;4.47;;;21.70;1.00;;;;;;5052873;28;20210;-65
2021/08/15 08:16:37;;;;;;;8.23;4.27;;;21.70;1.00;;;;;;5052720;28;20210;-66
2021/08/15 08:19:03;;;;;;;9.87;4.33;;;21.80;1.00;;;;;;5052624;28;20880;-67
2021/08/15 08:21:31;;;;;;;10.00;4.10;;;22.00;1.00;;;;;;5052637;28;20234;-68
2021/08/15 08:23:58;;;;;;;8.73;4.57;;;21.90;1.00;;;;;;5052653;28;20295;-66
2021/08/15 08:26:25;;;;;;;9.93;3.90;;;21.90;1.00;;;;;;5052633;28;20210;-66
2021/08/15 08:28:51;;;;;;;10.63;4.87;;;21.90;1.00;;;;;;5052635;28;20441;-65
2021/08/15 08:31:18;;;;;;;8.43;4.60;;;22.00;1.00;;;;;;5052058;28;20307;-67
2021/08/15 08:33:45;;;;;;;10.43;4.20;;;22.10;1.00;;;;;;5052468;28;20214;-67
2021/08/15 08:36:11;;;;;;;12.60;4.67;;;22.10;1.00;;;;;;5052687;28;20206;-66
2021/08/15 08:38:39;;;;;;;10.53;4.13;;;22.30;1.00;;;;;;5050244;28;20259;-66
2021/08/15 08:41:06;;;;;;;8.70;4.17;;;22.50;1.00;;;;;;5052458;28;20224;-65
2021/08/15 08:43:33;;;;;;;9.37;4.50;;;22.80;1.00;;;;;;5052385;28;20240;-66
2021/08/15 08:46:00;;;;;;;11.10;4.00;;;23.10;1.00;;;;;;5048245;28;20210;-67
2021/08/15 08:48:28;;;;;;;7.87;4.10;;;23.10;1.00;;;;;;5052618;28;20679;-68
2021/08/15 08:50:54;;;;;;;7.83;4.17;;;23.10;1.00;;;;;;5052309;28;20714;-68
2021/08/15 08:53:23;;;;;;;6.13;3.47;;;23.00;1.00;;;;;;5052593;28;20255;-66
2021/08/15 08:55:51;;;;;;;8.33;3.93;;;23.10;1.00;;;;;;5052157;28;20210;-66
2021/08/15 08:58:17;;;;;;;8.77;4.07;;;23.10;1.00;;;;;;5052345;28;20255;-66
2021/08/15 09:00:46;;;;;;;6.93;3.50;;;22.90;1.00;;;;;;5052171;28;20283;-66
2021/08/15 09:03:14;;;;;;;11.47;3.90;;;22.80;1.00;;;;;;5052334;28;20284;-67
2021/08/15 09:05:41;;;;;;;7.63;3.90;;;22.90;1.00;;;;;;5052158;28;20205;-66
2021/08/15 09:08:08;;;;;;;7.07;3.70;;;23.00;1.00;;;;;;5052017;28;20251;-66
2021/08/15 09:10:38;;;;;;;9.97;3.50;;;23.10;1.00;;;;;;5052460;28;20225;-66
2021/08/15 09:13:07;;;;;;;6.23;3.40;;;23.20;1.00;;;;;;5052000;28;20251;-66
2021/08/15 09:15:35;;;;;;;7.17;3.50;;;23.30;1.00;;;;;;5051804;28;20206;-65
2021/08/15 09:18:02;;;;;;;7.97;3.10;;;23.50;1.00;;;;;;5049966;28;20210;-67
2021/08/15 09:20:39;;;;;;;9.23;3.53;;;23.60;1.00;;;;;;5052168;28;20230;-66
2021/08/15 09:23:20;;;;;;;7.70;3.37;;;23.80;1.00;;;;;;5051957;28;20291;-67
2021/08/15 09:25:47;;;;;;;10.83;3.40;;;23.80;1.00;;;;;;5051774;28;20232;-66
2021/08/15 09:28:15;;;;;;;8.73;3.20;;;23.90;1.00;;;;;;5052226;28;20231;-65
2021/08/15 09:30:41;;;;;;;7.07;3.20;;;23.80;99.90;;;;;;5051801;28;20230;-66
2021/08/15 09:33:09;;;;;;;7.13;3.63;;;23.90;1.00;;;;;;5052577;28;20206;-66
2021/08/15 09:35:40;;;;;;;7.33;2.83;;;23.90;99.90;;;;;;5051396;28;20201;-68
2021/08/15 09:38:08;;;;;;;4.67;2.63;;;24.00;1.00;;;;;;5051054;28;20263;-66
2021/08/15 09:40:37;;;;;;;7.57;3.00;;;24.00;1.00;;;;;;5051145;28;20747;-67
2021/08/15 09:43:07;;;;;;;8.33;3.03;;;24.10;1.00;;;;;;5051484;28;20224;-66
2021/08/15 09:45:42;;;;;;;7.83;2.90;;;24.20;99.90;;;;;;5050961;28;20209;-67
2021/08/15 09:48:24;;;;;;;8.77;2.97;;;24.30;1.00;;;;;;5051449;28;20206;-67
2021/08/15 09:51:14;;;;;;;7.03;2.93;;;24.20;99.90;;;;;;5051317;28;20248;-66
2021/08/15 09:53:44;;;;;;;8.93;2.90;;;24.20;99.90;;;;;;5050805;28;20259;-68
2021/08/15 09:56:11;;;;;;;6.27;2.97;;;24.20;99.90;;;;;;5051320;28;20647;-67
2021/08/15 09:58:38;;;;;;;7.57;3.07;;;24.30;99.90;;;;;;5051245;28;20724;-65
2021/08/15 10:01:08;;;;;;;6.43;3.07;;;24.40;99.90;;;;;;5050954;28;20229;-65
2021/08/15 10:03:36;;;;;;;9.70;3.10;;;24.50;99.90;;;;;;5051449;28;20248;-65
2021/08/15 10:06:03;;;;;;;8.90;3.13;;;24.50;99.90;;;;;;5053237;28;20205;-65
2021/08/15 10:08:30;;;;;;;8.07;2.97;;;24.40;99.90;;;;;;5051249;28;20606;-67
2021/08/15 10:10:58;;;;;;;7.47;2.77;;;24.40;99.90;;;;;;5051132;28;20765;-65
2021/08/15 10:13:25;;;;;;;7.80;2.70;;;24.50;99.90;;;;;;5050689;28;20256;-65
2021/08/15 10:16:02;;;;;;;5.97;3.07;;;24.40;99.90;;;;;;5051302;28;20205;-65
2021/08/15 10:18:32;;;;;;;7.80;3.13;;;24.60;99.90;;;;;;5051280;28;20263;-66
2021/08/15 10:21:11;;;;;;;6.77;2.43;;;24.70;99.90;;;;;;5051387;28;20283;-66
2021/08/15 10:23:40;;;;;;;6.43;2.73;;;24.70;99.90;;;;;;5050996;28;20601;-66
2021/08/15 10:26:42;;;;;;;8.27;3.20;;;24.60;99.90;;;;;;5051149;28;20256;-66
2021/08/15 10:29:36;;;;;;;11.63;4.23;;;24.60;99.90;;;;;;5054251;28;20621;-65
2021/08/15 10:32:20;;;;;;;6.77;3.00;;;24.60;99.90;;;;;;5055687;28;20312;-65
2021/08/15 10:35:18;;;;;;;9.43;3.30;;;24.40;99.90;;;;;;5054912;28;20666;-65
2021/08/15 10:37:51;;;;;;;6.77;3.10;;;24.40;99.90;;;;;;5056789;28;20289;-66
2021/08/15 10:40:47;;;;;;;8.17;3.03;;;24.40;99.90;;;;;;5056094;28;20705;-64
2021/08/15 10:43:15;;;;;;;9.13;3.00;;;24.60;99.90;;;;;;5057736;28;20267;-63
2021/08/15 10:45:43;;;;;;;6.47;3.27;;;24.70;99.90;;;;;;5057722;28;20666;-65
2021/08/15 10:48:23;;;;;;;8.23;3.00;;;24.80;99.90;;;;;;5057485;28;20415;-66
2021/08/15 10:50:53;;;;;;;12.53;3.07;;;24.90;99.90;;;;;;5054567;28;20232;-65
2021/08/15 10:53:38;;;;;;;5.80;3.40;;;24.80;99.90;;;;;;5054665;28;20779;-64
2021/08/15 10:56:07;;;;;;;9.37;3.37;;;24.80;99.90;;;;;;5055052;28;20213;-65
2021/08/15 10:58:38;;;;;;;6.83;3.13;;;24.80;99.90;;;;;;5054751;28;20251;-65
2021/08/15 11:01:06;;;;;;;8.53;2.77;;;24.90;99.90;;;;;;5054061;28;20717;-66
2021/08/15 11:03:38;;;;;;;14.40;3.63;;;25.20;99.90;;;;;;5053984;28;20206;-66
2021/08/15 11:06:45;;;;;;;7.97;3.97;;;25.50;99.90;;;;;;5054473;28;20210;-65
2021/08/15 11:09:12;;;;;;;6.50;3.00;;;25.60;99.90;;;;;;5054023;28;20245;-65
2021/08/15 11:12:08;;;;;;;7.37;3.40;;;25.90;99.90;;;;;;5054103;28;20283;-65
2021/08/15 11:14:35;;;;;;;7.50;3.50;;;26.10;99.90;;;;;;5053752;28;20625;-66
2021/08/15 11:17:14;;;;;;;7.77;3.23;;;26.00;99.90;;;;;;5054110;28;20271;-66
2021/08/15 11:19:42;;;;;;;6.63;3.47;;;25.80;99.90;;;;;;5053673;28;20340;-66
2021/08/15 11:22:26;;;;;;;10.80;3.63;;;25.60;99.90;;;;;;5053642;28;20596;-67
2021/08/15 11:25:01;;;;;;;6.67;3.20;;;25.60;99.90;;;;;;5053854;28;20213;-66
2021/08/15 11:27:31;;;;;;;7.77;3.20;;;25.70;99.90;;;;;;5054159;28;20209;-66
2021/08/15 11:29:58;;;;;;;8.73;3.47;;;25.70;99.90;;;;;;5053541;28;20209;-67
2021/08/15 11:32:27;;;;;;;6.37;3.10;;;25.70;99.90;;;;;;5053777;28;20248;-67
2021/08/15 11:34:56;;;;;;;6.23;3.10;;;25.70;99.90;;;;;;5053441;28;20644;-67
2021/08/15 11:37:25;;;;;;;6.17;2.97;;;25.90;99.90;;;;;;5053795;28;20205;-66
2021/08/15 11:39:53;;;;;;;5.60;3.13;;;25.80;99.90;;;;;;5052704;28;20275;-66
2021/08/15 11:42:21;;;;;;;7.37;3.77;;;25.90;99.90;;;;;;5053508;28;20229;-66
2021/08/15 11:44:53;;;;;;;5.87;3.03;;;26.00;99.90;;;;;;5053355;28;20581;-66
2021/08/15 11:47:22;;;;;;;6.27;3.17;;;25.80;99.90;;;;;;5053665;28;20214;-66
2021/08/15 11:49:48;;;;;;;6.13;3.37;;;25.60;99.90;;;;;;5053711;28;20239;-65
2021/08/15 11:52:17;;;;;;;8.77;3.43;;;25.50;99.90;;;;;;5053181;28;20226;-65
2021/08/15 11:54:45;;;;;;;6.83;3.03;;;25.60;99.90;;;;;;5053209;28;20220;-65
2021/08/15 11:57:13;;;;;;;8.47;3.17;;;25.60;99.90;;;;;;5053080;28;20343;-65
2021/08/15 11:59:42;;;;;;;5.13;2.97;;;25.60;99.90;;;;;;5052658;28;20210;-65
2021/08/15 12:02:18;;;;;;;8.83;3.00;;;25.50;99.90;;;;;;5053444;28;20221;-65
2021/08/15 12:04:49;;;;;;;7.83;3.30;;;25.50;99.90;;;;;;5053023;28;20247;-66
2021/08/15 12:07:23;;;;;;;7.17;3.00;;;25.60;99.90;;;;;;5053027;28;20255;-66
2021/08/15 12:10:26;;;;;;;7.97;3.53;;;25.50;99.90;;;;;;5052838;28;20234;-66
2021/08/15 12:13:17;;;;;;;5.67;2.90;;;25.70;99.90;;;;;;5053239;28;20296;-65
2021/08/15 12:15:45;;;;;;;7.43;2.90;;;25.90;99.90;;;;;;5052754;28;20210;-65
2021/08/15 12:18:37;;;;;;;9.47;3.00;;;26.00;99.90;;;;;;5052902;28;20206;-65
2021/08/15 12:21:16;;;;;;;6.83;2.50;;;26.00;99.90;;;;;;5052546;28;20320;-65
2021/08/15 12:24:05;;;;;;;4.73;2.70;;;25.70;99.90;;;;;;5052754;28;20212;-65
2021/08/15 12:26:35;;;;;;;5.10;2.53;;;25.80;99.90;;;;;;5052724;28;20206;-65
2021/08/15 12:29:03;;;;;;;7.60;3.70;;;25.80;99.90;;;;;;5052752;28;20206;-65
2021/08/15 12:31:34;;;;;;;10.17;2.73;;;25.90;99.90;;;;;;5052262;28;20245;-64
2021/08/15 12:34:06;;;;;;;5.23;2.60;;;26.10;99.90;;;;;;5052406;28;20708;-64
2021/08/15 12:36:41;;;;;;;6.37;2.57;;;26.20;99.90;;;;;;5052434;28;20205;-64
2021/08/15 12:39:08;;;;;;;6.57;3.20;;;26.00;99.90;;;;;;5052659;28;20251;-66
2021/08/15 12:41:52;;;;;;;6.57;2.90;;;25.90;99.90;;;;;;5052489;28;20233;-66
2021/08/15 12:44:21;;;;;;;4.63;2.83;;;25.90;99.90;;;;;;5052724;28;20331;-66
2021/08/15 12:46:59;;;;;;;10.53;3.20;;;26.10;99.90;;;;;;5052392;28;20205;-66